Main page
METAR-TAF:

METAR-TAF

Airports :

Shahid Sadooghi Airport

Yazd, Iran

latitude: 31-54N, longitude: 054-24E, elevation: 1238 m

Current weather observation

The report was made 22 minutes ago, at 03:30 UTC
Wind 2 kt from variable directions
Temperature 5°C
Humidity 48%
Pressure 1024 hPa
Visibility 10 km or more
Few clouds at a height of 10000 ft
Scattered clouds at a height of 20000 ft

METAR: OIYY 090330Z VRB02KT 9999 FEW100 SCT200 05/M05 Q1024

Time: 07:22 (03:52 UTC)

Forecast

The report was made 1 hour and 42 minutes ago, at 02:10 UTC
Forecast valid from 09 at 03 UTC to 09 at 12 UTC
Wind 6 kt from the South
Visibility: 8000 m

TAF: OIYY 090210Z 0903/0912 17006KT 8000 NSC

Weather observations and forecasts of more than 4000 airports (METAR and TAF reports).

The available stations are represented by yellow and red dots on the map.

Hover mouse over dot to see the name of the station.

Then click to see weather observations and forecasts.

To change the map : click on the green buttons with a black cross to zoom in, on the green button with a dash to zoom out, or on the green arrows for adjacent maps.


METAR-TAF: